Time;durP1;ratioP1;P1;durP2;ratioP2;P2;SDS_P1;SDS_P2;PMS_P1;PMS_P2;Temp;Humidity;BMP_temperature;BMP_pressure;BME280_temperature;BME280_humidity;BME280_pressure;Samples;Min_cycle;Max_cycle;Signal;HPM_P1;HPM_P2
2022/04/20 00:00:35;;;;;;;18.42;9.52;;;;;;;;;;6254039;22;20003;-91
2022/04/20 00:03:02;;;;;;;20.70;8.68;;;;;;;;;;6253674;22;20086;-92
2022/04/20 00:06:04;;;;;;;20.95;9.80;;;;;;;;;;6257125;22;20004;-90
2022/04/20 00:08:32;;;;;;;35.97;14.57;;;;;;;;;;6247858;23;20012;-91
2022/04/20 00:10:59;;;;;;;27.08;12.73;;;;;;;;;;6224820;23;20004;-91
2022/04/20 00:13:25;;;;;;;26.35;12.23;;;;;;;;;;6223276;22;20507;-91
2022/04/20 00:15:51;;;;;;;29.55;13.50;;;;;;;;;;6223252;23;20083;-91
2022/04/20 00:18:17;;;;;;;25.23;13.00;;;;;;;;;;6222542;23;20066;-89
2022/04/20 00:20:43;;;;;;;30.25;13.38;;;;;;;;;;6226226;23;20418;-91
2022/04/20 00:23:10;;;;;;;37.90;14.52;;;;;;;;;;6224428;23;20441;-90
2022/04/20 00:25:45;;;;;;;43.75;17.27;;;;;;;;;;6253241;23;19997;-96
2022/04/20 00:28:11;;;;;;;40.17;17.75;;;;;;;;;;6223783;23;20011;-91
2022/04/20 00:30:37;;;;;;;55.72;19.15;;;;;;;;;;6224088;23;20004;-91
2022/04/20 00:33:03;;;;;;;41.00;17.67;;;;;;;;;;6226009;23;20334;-92
2022/04/20 00:35:32;;;;;;;44.83;18.88;;;;;;;;;;6225961;22;20008;-96
2022/04/20 00:40:35;;;;;;;38.00;17.70;;;;;;;;;;6283325;22;20387;-90
2022/04/20 00:43:01;;;;;;;39.40;17.10;;;;;;;;;;6253166;22;20053;-91
2022/04/20 00:48:16;;;;;;;44.70;18.20;;;;;;;;;;6239269;22;20081;-89
2022/04/20 00:50:43;;;;;;;41.78;17.60;;;;;;;;;;6256867;22;20028;-88
2022/04/20 00:53:09;;;;;;;39.13;17.27;;;;;;;;;;6254394;22;20061;-89
2022/04/20 00:55:41;;;;;;;38.42;16.95;;;;;;;;;;6257090;22;20004;-95
2022/04/20 01:01:11;;;;;;;38.20;15.85;;;;;;;;;;6281823;22;20018;-89
2022/04/20 01:03:37;;;;;;;39.53;16.52;;;;;;;;;;6254158;22;20412;-90
2022/04/20 01:06:04;;;;;;;35.30;14.63;;;;;;;;;;6254134;22;20091;-91
2022/04/20 01:08:30;;;;;;;34.63;15.60;;;;;;;;;;6254154;22;20436;-88
2022/04/20 01:10:56;;;;;;;36.88;16.45;;;;;;;;;;6257875;22;19992;-90
2022/04/20 01:13:22;;;;;;;35.00;16.05;;;;;;;;;;6260890;22;20003;-90
2022/04/20 01:15:49;;;;;;;36.88;16.70;;;;;;;;;;6257726;22;21364;-90
2022/04/20 01:18:16;;;;;;;33.25;15.15;;;;;;;;;;6253195;22;20043;-89
2022/04/20 01:20:42;;;;;;;30.15;15.45;;;;;;;;;;6252469;22;20015;-88
2022/04/20 01:28:10;;;;;;;40.67;18.40;;;;;;;;;;6282659;22;19918;-90
2022/04/20 01:30:37;;;;;;;43.78;16.40;;;;;;;;;;6253378;22;20042;-89
2022/04/20 01:33:03;;;;;;;33.13;15.65;;;;;;;;;;6254364;22;20027;-90
2022/04/20 01:35:38;;;;;;;34.85;14.85;;;;;;;;;;6254093;22;20425;-94
2022/04/20 01:38:04;;;;;;;33.05;14.75;;;;;;;;;;6258676;22;20018;-90
2022/04/20 01:40:36;;;;;;;31.05;14.20;;;;;;;;;;6259796;22;20053;-91
2022/04/20 01:43:12;;;;;;;31.63;13.90;;;;;;;;;;6263263;22;20004;-95
2022/04/20 01:45:38;;;;;;;32.10;15.13;;;;;;;;;;6263256;22;20011;-89
2022/04/20 01:48:11;;;;;;;27.55;14.15;;;;;;;;;;6261413;22;20004;-93
2022/04/20 01:53:30;;;;;;;28.08;13.70;;;;;;;;;;6290697;22;20099;-93
2022/04/20 01:55:56;;;;;;;28.23;13.73;;;;;;;;;;6259545;22;20066;-92
2022/04/20 01:58:25;;;;;;;20.40;11.35;;;;;;;;;;6253359;22;20039;-94
2022/04/20 02:03:41;;;;;;;26.02;11.80;;;;;;;;;;6296247;22;20031;-92
2022/04/20 02:06:10;;;;;;;22.02;10.70;;;;;;;;;;6251438;22;20019;-90
2022/04/20 02:08:39;;;;;;;20.67;10.85;;;;;;;;;;6253016;22;20010;-91
2022/04/20 02:11:05;;;;;;;21.45;10.63;;;;;;;;;;6247032;22;20038;-91
2022/04/20 02:13:32;;;;;;;20.52;10.43;;;;;;;;;;6253182;22;20031;-92
2022/04/20 02:15:59;;;;;;;22.13;11.88;;;;;;;;;;6249504;22;20047;-92
2022/04/20 02:18:34;;;;;;;23.25;11.20;;;;;;;;;;6251638;22;20019;-96
2022/04/20 02:21:00;;;;;;;20.83;10.25;;;;;;;;;;6251925;22;20007;-91
2022/04/20 02:23:26;;;;;;;20.98;10.18;;;;;;;;;;6248492;22;20063;-91
2022/04/20 02:25:53;;;;;;;18.25;10.25;;;;;;;;;;6254116;22;20039;-91
2022/04/20 02:28:19;;;;;;;18.98;11.05;;;;;;;;;;6252514;22;20008;-91
2022/04/20 02:30:51;;;;;;;20.33;10.82;;;;;;;;;;6252046;22;20158;-90
2022/04/20 02:33:17;;;;;;;21.20;11.38;;;;;;;;;;6251608;22;20093;-91
2022/04/20 02:35:44;;;;;;;19.85;11.07;;;;;;;;;;6254495;22;20014;-91
2022/04/20 02:38:12;;;;;;;23.90;11.60;;;;;;;;;;6250969;22;20051;-92
2022/04/20 02:40:44;;;;;;;21.15;10.85;;;;;;;;;;6254417;22;20004;-92
2022/04/20 02:43:10;;;;;;;20.05;11.07;;;;;;;;;;6252163;22;20030;-92
2022/04/20 02:45:40;;;;;;;23.70;11.23;;;;;;;;;;6254033;22;20027;-90
2022/04/20 02:51:08;;;;;;;20.25;10.32;;;;;;;;;;6270671;22;20027;-91
2022/04/20 03:01:18;;;;;;;19.75;9.95;;;;;;;;;;6262877;22;20060;-91
2022/04/20 03:04:04;;;;;;;20.20;10.88;;;;;;;;;;6243580;22;20031;-92
2022/04/20 03:06:33;;;;;;;20.15;10.45;;;;;;;;;;6232056;23;20015;-92
2022/04/20 03:14:39;;;;;;;19.73;10.15;;;;;;;;;;6241885;22;20028;-92
2022/04/20 03:17:05;;;;;;;21.80;10.75;;;;;;;;;;6257047;22;20074;-90
2022/04/20 03:24:51;;;;;;;20.05;10.48;;;;;;;;;;6282321;22;20079;-92
2022/04/20 03:27:21;;;;;;;25.15;12.50;;;;;;;;;;6255233;22;20007;-92
2022/04/20 03:29:50;;;;;;;27.48;12.82;;;;;;;;;;6255658;22;20054;-91
2022/04/20 03:34:59;;;;;;;22.23;11.23;;;;;;;;;;6252725;22;20465;-91
2022/04/20 03:37:26;;;;;;;25.08;11.95;;;;;;;;;;6257675;22;20110;-91
2022/04/20 03:40:08;;;;;;;21.90;11.70;;;;;;;;;;6257577;22;20095;-93
2022/04/20 03:42:34;;;;;;;21.23;11.55;;;;;;;;;;6255457;22;20012;-90
2022/04/20 03:45:03;;;;;;;24.02;12.75;;;;;;;;;;6256163;22;20004;-92
2022/04/20 03:47:30;;;;;;;24.92;12.40;;;;;;;;;;6242072;22;20415;-91
2022/04/20 03:50:02;;;;;;;21.27;11.60;;;;;;;;;;6225874;23;20062;-91
2022/04/20 04:00:51;;;;;;;22.48;12.23;;;;;;;;;;6300330;22;20053;-91
2022/04/20 04:05:53;;;;;;;24.90;11.93;;;;;;;;;;6275064;22;20011;-91
2022/04/20 04:20:46;;;;;;;30.40;12.88;;;;;;;;;;6283448;22;20046;-89
2022/04/20 04:23:23;;;;;;;26.73;13.27;;;;;;;;;;6250009;22;20019;-90
2022/04/20 04:36:43;;;;;;;47.38;23.30;;;;;;;;;;6311869;22;20105;-90
2022/04/20 04:39:09;;;;;;;42.17;20.95;;;;;;;;;;6282881;22;20017;-90
2022/04/20 04:41:35;;;;;;;41.92;21.92;;;;;;;;;;6283852;22;20003;-89
2022/04/20 04:44:04;;;;;;;46.00;23.70;;;;;;;;;;6284506;22;20003;-89
2022/04/20 04:52:30;;;;;;;46.93;24.60;;;;;;;;;;6310057;22;20378;-92
2022/04/20 04:55:21;;;;;;;50.47;25.63;;;;;;;;;;6282642;22;20234;-91
2022/04/20 04:57:56;;;;;;;46.83;23.58;;;;;;;;;;6281816;22;20371;-91
2022/04/20 05:00:32;;;;;;;50.25;25.13;;;;;;;;;;6285769;22;20000;-91
2022/04/20 05:18:28;;;;;;;35.63;21.27;;;;;;;;;;6190380;22;20027;-94
2022/04/20 05:21:00;;;;;;;33.97;20.88;;;;;;;;;;6284174;22;20440;-90
2022/04/20 05:23:31;;;;;;;27.15;17.27;;;;;;;;;;6283830;22;20000;-94
2022/04/20 05:29:26;;;;;;;23.63;11.77;;;;;;;;;;6310795;22;20439;-93
2022/04/20 05:31:59;;;;;;;20.30;10.52;;;;;;;;;;6283234;22;20007;-91
2022/04/20 05:34:28;;;;;;;15.90;9.35;;;;;;;;;;6282610;22;20003;-90
2022/04/20 05:42:48;;;;;;;17.90;10.35;;;;;;;;;;6280558;22;20014;-93
2022/04/20 05:45:17;;;;;;;17.10;9.73;;;;;;;;;;6279752;22;20429;-92
2022/04/20 05:47:50;;;;;;;16.48;9.80;;;;;;;;;;6257876;22;20003;-94
2022/04/20 05:50:29;;;;;;;17.83;9.68;;;;;;;;;;6253239;22;20006;-92
2022/04/20 05:53:16;;;;;;;14.63;8.68;;;;;;;;;;6252738;22;20046;-92
2022/04/20 05:55:49;;;;;;;15.07;9.77;;;;;;;;;;6254305;22;20011;-93
2022/04/20 05:58:27;;;;;;;15.63;10.10;;;;;;;;;;6253314;22;20015;-95
2022/04/20 06:00:53;;;;;;;17.83;9.65;;;;;;;;;;6255219;22;20091;-94
2022/04/20 10:57:10;;;;;;;13.52;7.70;;;;;;;;;;5168193;22;20445;-95
2022/04/20 10:59:43;;;;;;;12.75;7.50;;;;;;;;;;5385131;22;20255;-94
2022/04/20 11:02:24;;;;;;;12.95;7.50;;;;;;;;;;5057201;28;20091;-95
2022/04/20 11:05:15;;;;;;;12.35;7.22;;;;;;;;;;5269939;22;20049;-95
2022/04/20 11:08:00;;;;;;;12.75;6.05;;;;;;;;;;5257934;22;20020;-95
2022/04/20 11:44:03;;;;;;;10.10;5.50;;;;;;;;;;5143147;23;20064;-95
2022/04/20 11:49:12;;;;;;;8.02;4.72;;;;;;;;;;5760813;23;20044;-94
2022/04/20 11:55:07;;;;;;;7.30;4.45;;;;;;;;;;5513986;23;20045;-96
2022/04/20 12:01:01;;;;;;;12.80;5.47;;;;;;;;;;4974875;28;20065;-94
2022/04/20 12:03:50;;;;;;;7.93;5.30;;;;;;;;;;5104439;23;20061;-96
2022/04/20 12:06:17;;;;;;;8.57;5.05;;;;;;;;;;5029625;28;20030;-93
2022/04/20 12:08:48;;;;;;;9.73;5.28;;;;;;;;;;5028369;28;20037;-94
2022/04/20 12:11:31;;;;;;;9.32;5.68;;;;;;;;;;5023477;28;20052;-95
2022/04/20 12:14:30;;;;;;;9.67;5.70;;;;;;;;;;5122703;23;20050;-95
2022/04/20 12:17:09;;;;;;;9.93;4.88;;;;;;;;;;4982631;28;20138;-95
2022/04/20 12:19:42;;;;;;;9.60;5.38;;;;;;;;;;5291674;23;20099;-94
2022/04/20 12:22:35;;;;;;;12.30;5.75;;;;;;;;;;5439668;23;20021;-95
2022/04/20 12:25:19;;;;;;;8.82;5.28;;;;;;;;;;5012063;28;20041;-94
2022/04/20 12:28:35;;;;;;;9.93;5.35;;;;;;;;;;5020542;28;20046;-95
2022/04/20 12:30:47;;;;;;;10.73;7.03;;;;;;;;;;5037668;28;20017;-93
2022/04/20 12:33:32;;;;;;;10.70;5.78;;;;;;;;;;5021253;28;20026;-94
2022/04/20 12:36:18;;;;;;;10.10;6.10;;;;;;;;;;5020645;28;20025;-96
2022/04/20 12:38:46;;;;;;;7.95;4.43;;;;;;;;;;5020131;28;20060;-90
2022/04/20 12:41:34;;;;;;;8.23;5.00;;;;;;;;;;5021566;28;20462;-95
2022/04/20 12:46:45;;;;;;;10.23;5.45;;;;;;;;;;5091541;23;20127;-92
2022/04/20 12:52:33;;;;;;;10.20;5.10;;;;;;;;;;5043427;28;20048;-95
2022/04/20 12:55:06;;;;;;;8.90;5.10;;;;;;;;;;5020260;28;20034;-95
2022/04/20 13:15:11;;;;;;;9.60;5.45;;;;;;;;;;5037333;28;20036;-93
2022/04/20 13:17:37;;;;;;;9.18;5.53;;;;;;;;;;5019456;28;20025;-93
2022/04/20 13:20:03;;;;;;;9.25;5.93;;;;;;;;;;5019402;28;20030;-92
2022/04/20 13:22:39;;;;;;;8.65;5.25;;;;;;;;;;5019644;28;20025;-92
2022/04/20 13:28:03;;;;;;;8.93;4.93;;;;;;;;;;5035724;28;20045;-93
2022/04/20 13:30:40;;;;;;;10.82;5.30;;;;;;;;;;5020007;28;20411;-94
2022/04/20 13:33:13;;;;;;;7.65;5.10;;;;;;;;;;5018510;28;20037;-93
2022/04/20 13:35:47;;;;;;;6.18;4.25;;;;;;;;;;5037518;28;20029;-93
2022/04/20 13:44:24;;;;;;;10.02;6.03;;;;;;;;;;4979934;28;20033;-94
2022/04/20 13:46:50;;;;;;;11.85;5.57;;;;;;;;;;5005378;28;20084;-94
2022/04/20 13:49:16;;;;;;;9.15;5.35;;;;;;;;;;5018317;28;20462;-94
2022/04/20 13:51:58;;;;;;;8.32;5.38;;;;;;;;;;5017950;28;20034;-91
2022/04/20 13:54:25;;;;;;;9.20;5.80;;;;;;;;;;5019741;28;20044;-93
2022/04/20 13:59:41;;;;;;;8.68;4.80;;;;;;;;;;5038756;28;20041;-93
2022/04/20 14:02:11;;;;;;;7.70;4.88;;;;;;;;;;5019267;28;20035;-92
2022/04/20 14:04:47;;;;;;;9.73;5.45;;;;;;;;;;4994370;28;20106;-92
2022/04/20 14:07:25;;;;;;;8.75;4.20;;;;;;;;;;4994507;28;20364;-91
2022/04/20 14:09:54;;;;;;;9.40;4.63;;;;;;;;;;4993852;28;20030;-91
2022/04/20 14:12:31;;;;;;;8.68;5.75;;;;;;;;;;4994346;28;20109;-91
2022/04/20 14:15:14;;;;;;;8.15;4.53;;;;;;;;;;4993483;28;20061;-91
2022/04/20 14:18:00;;;;;;;7.78;5.03;;;;;;;;;;4975678;28;20043;-91
2022/04/20 14:20:27;;;;;;;12.10;5.95;;;;;;;;;;4983606;28;20073;-94
2022/04/20 14:22:53;;;;;;;7.90;5.03;;;;;;;;;;5248312;23;20426;-92
2022/04/20 14:34:33;;;;;;;8.32;5.40;;;;;;;;;;4996185;28;20033;-92
2022/04/20 14:37:13;;;;;;;8.32;5.38;;;;;;;;;;4993955;28;20129;-90
2022/04/20 14:39:41;;;;;;;9.45;5.72;;;;;;;;;;4992104;28;20628;-92
2022/04/20 14:42:27;;;;;;;11.07;5.05;;;;;;;;;;4994043;28;20037;-92
2022/04/20 14:45:23;;;;;;;8.43;5.18;;;;;;;;;;4991458;28;20104;-91
2022/04/20 14:48:00;;;;;;;6.90;4.70;;;;;;;;;;4953806;29;20126;-93
2022/04/20 14:50:30;;;;;;;7.25;4.88;;;;;;;;;;4995461;28;20034;-91
2022/04/20 14:53:09;;;;;;;11.98;5.88;;;;;;;;;;4993651;28;20539;-93
2022/04/20 14:58:59;;;;;;;8.43;5.15;;;;;;;;;;4954436;29;20480;-92
2022/04/20 15:01:28;;;;;;;9.25;5.15;;;;;;;;;;4919276;29;20039;-92
2022/04/20 15:04:07;;;;;;;10.25;5.53;;;;;;;;;;4953865;29;20027;-93
2022/04/20 15:10:03;;;;;;;8.65;5.38;;;;;;;;;;4918090;29;20031;-93
2022/04/20 15:12:29;;;;;;;8.52;5.90;;;;;;;;;;4922897;29;20055;-91
2022/04/20 15:15:04;;;;;;;8.40;5.40;;;;;;;;;;4982493;28;20053;-92
2022/04/20 15:17:31;;;;;;;8.70;5.07;;;;;;;;;;4993180;28;20026;-93
2022/04/20 15:23:10;;;;;;;9.70;5.93;;;;;;;;;;5013459;28;20052;-92
2022/04/20 15:25:36;;;;;;;11.68;6.55;;;;;;;;;;4996912;28;20069;-91
2022/04/20 15:28:09;;;;;;;11.02;6.25;;;;;;;;;;4996494;28;20022;-93
2022/04/20 15:30:41;;;;;;;12.02;5.97;;;;;;;;;;4997573;28;20034;-92
2022/04/20 15:39:00;;;;;;;8.73;5.57;;;;;;;;;;4967784;28;20088;-91
2022/04/20 15:41:41;;;;;;;7.85;5.18;;;;;;;;;;4997569;28;20499;-93
2022/04/20 15:44:10;;;;;;;8.48;5.57;;;;;;;;;;5001635;28;20117;-90
2022/04/20 15:46:52;;;;;;;8.65;5.30;;;;;;;;;;5000209;28;20029;-91
2022/04/20 15:49:36;;;;;;;7.57;5.28;;;;;;;;;;5003007;28;20426;-91
2022/04/20 15:52:07;;;;;;;8.20;5.60;;;;;;;;;;5000362;28;20546;-92
2022/04/20 15:54:42;;;;;;;8.45;5.30;;;;;;;;;;5000267;28;20029;-90
2022/04/20 16:02:41;;;;;;;8.40;5.53;;;;;;;;;;5021841;28;20076;-93
2022/04/20 16:05:24;;;;;;;9.45;5.75;;;;;;;;;;5003681;28;20088;-91
2022/04/20 16:11:16;;;;;;;10.10;6.45;;;;;;;;;;5015647;28;20217;-93
2022/04/20 16:13:43;;;;;;;8.90;5.95;;;;;;;;;;4993497;28;20041;-91
2022/04/20 16:16:10;;;;;;;10.48;6.10;;;;;;;;;;5001367;28;20030;-93
2022/04/20 16:21:56;;;;;;;10.35;5.72;;;;;;;;;;5017107;28;20095;-92
2022/04/20 16:24:44;;;;;;;8.38;5.45;;;;;;;;;;4996186;28;20038;-93
2022/04/20 16:33:27;;;;;;;9.63;6.15;;;;;;;;;;5016633;28;20466;-93
2022/04/20 16:35:59;;;;;;;10.40;6.28;;;;;;;;;;4999358;28;20022;-92
2022/04/20 16:38:31;;;;;;;11.05;6.82;;;;;;;;;;4999566;28;20117;-92
2022/04/20 16:41:06;;;;;;;11.88;6.47;;;;;;;;;;4998955;28;20463;-92
2022/04/20 16:43:47;;;;;;;11.00;5.63;;;;;;;;;;4998803;28;20033;-94
2022/04/20 16:46:16;;;;;;;8.65;5.47;;;;;;;;;;4999336;28;20072;-93
2022/04/20 16:48:46;;;;;;;9.65;5.60;;;;;;;;;;5001194;28;20025;-93
2022/04/20 16:51:24;;;;;;;9.77;5.70;;;;;;;;;;4999366;28;20034;-94
2022/04/20 16:53:51;;;;;;;8.32;6.00;;;;;;;;;;5000862;28;20029;-92
2022/04/20 16:56:17;;;;;;;10.77;5.43;;;;;;;;;;5001355;28;20030;-91
2022/04/20 16:58:47;;;;;;;10.18;5.60;;;;;;;;;;4999425;28;20033;-94
2022/04/20 17:01:16;;;;;;;9.30;5.55;;;;;;;;;;4996020;28;20041;-93
2022/04/20 17:03:52;;;;;;;8.07;5.13;;;;;;;;;;4998786;28;20080;-93
2022/04/20 17:06:24;;;;;;;12.02;6.00;;;;;;;;;;4998923;28;20038;-92
2022/04/20 17:12:35;;;;;;;;;;;;;;;;;;;;;
2022/04/20 17:18:12;;;;;;;10.43;6.87;;;;;;;;;;5016045;28;20409;-93
2022/04/20 17:27:22;;;;;;;9.85;6.95;;;;;;;;;;5016262;28;20064;-92
2022/04/20 17:36:52;;;;;;;10.93;6.72;;;;;;;;;;5012426;28;20119;-93
2022/04/20 17:42:14;;;;;;;10.68;6.63;;;;;;;;;;5018842;28;20065;-93
2022/04/20 17:44:46;;;;;;;11.63;7.00;;;;;;;;;;5000237;28;20026;-94
2022/04/20 17:58:06;;;;;;;13.18;7.78;;;;;;;;;;5611319;22;20049;-92
2022/04/20 18:00:38;;;;;;;10.80;7.25;;;;;;;;;;5018687;28;20382;-93
2022/04/20 18:03:04;;;;;;;11.77;7.95;;;;;;;;;;5019133;28;20025;-91
2022/04/20 18:05:50;;;;;;;11.73;8.23;;;;;;;;;;5018626;28;20033;-92
2022/04/20 18:08:19;;;;;;;13.05;8.30;;;;;;;;;;5017616;28;20075;-93
2022/04/20 18:10:46;;;;;;;12.80;8.35;;;;;;;;;;5017606;28;20029;-93
2022/04/20 18:13:15;;;;;;;13.68;8.77;;;;;;;;;;5017335;28;20120;-93
2022/04/20 18:16:06;;;;;;;15.32;8.02;;;;;;;;;;4999613;28;20354;-93
2022/04/20 18:21:10;;;;;;;12.27;8.02;;;;;;;;;;4959975;28;20043;-90
2022/04/20 18:23:40;;;;;;;15.30;9.60;;;;;;;;;;4939244;29;20445;-90
2022/04/20 18:26:07;;;;;;;15.73;8.55;;;;;;;;;;4954381;29;20039;-90
2022/04/20 18:28:33;;;;;;;13.10;9.10;;;;;;;;;;4938199;28;20020;-92
2022/04/20 18:31:30;;;;;;;16.42;9.10;;;;;;;;;;4939279;29;20030;-92
2022/04/20 18:33:59;;;;;;;15.35;9.48;;;;;;;;;;4938831;29;20031;-93
2022/04/20 18:36:34;;;;;;;13.35;9.30;;;;;;;;;;4939229;29;20028;-91
2022/04/20 18:41:36;;;;;;;19.67;9.55;;;;;;;;;;5006809;23;20145;-91
2022/04/20 18:49:51;;;;;;;19.83;9.38;;;;;;;;;;4979861;28;20026;-92
2022/04/20 18:58:47;;;;;;;15.20;9.75;;;;;;;;;;5034475;28;20035;-94
2022/04/20 19:01:13;;;;;;;19.80;9.93;;;;;;;;;;5016696;28;20029;-92
2022/04/20 19:03:49;;;;;;;15.05;9.65;;;;;;;;;;5016599;28;20430;-92
2022/04/20 19:09:19;;;;;;;17.10;10.13;;;;;;;;;;5014187;28;20040;-94
2022/04/20 19:12:07;;;;;;;17.45;10.45;;;;;;;;;;5024499;28;20044;-91
2022/04/20 19:14:33;;;;;;;15.95;9.73;;;;;;;;;;5018495;28;20018;-90
2022/04/20 19:17:01;;;;;;;16.20;9.85;;;;;;;;;;4999246;28;20025;-92
2022/04/20 19:19:54;;;;;;;14.88;9.13;;;;;;;;;;5017033;28;20048;-93
2022/04/20 19:25:11;;;;;;;16.52;9.00;;;;;;;;;;5038226;28;20052;-91
2022/04/20 19:27:40;;;;;;;13.75;8.68;;;;;;;;;;5020024;28;20456;-91
2022/04/20 19:30:31;;;;;;;14.75;9.65;;;;;;;;;;5020469;28;20033;-91
2022/04/20 19:45:38;;;;;;;12.23;8.02;;;;;;;;;;4900211;29;20076;-93
2022/04/20 19:50:48;;;;;;;15.32;8.55;;;;;;;;;;5103563;22;20064;-91
2022/04/20 19:53:28;;;;;;;14.05;8.23;;;;;;;;;;5020730;28;20502;-94
2022/04/20 19:56:07;;;;;;;13.40;8.00;;;;;;;;;;5023678;28;20029;-92
2022/04/20 19:58:44;;;;;;;14.02;8.15;;;;;;;;;;5019869;28;20025;-91
2022/04/20 20:01:26;;;;;;;14.38;8.93;;;;;;;;;;5019947;28;20036;-90
2022/04/20 20:10:11;;;;;;;14.00;8.10;;;;;;;;;;5038282;28;20573;-91
2022/04/20 20:12:41;;;;;;;17.40;10.93;;;;;;;;;;5014536;28;20096;-89
2022/04/20 20:15:21;;;;;;;;;;;;;;;;;;;;;
2022/04/20 20:18:35;;;;;;;17.35;10.27;;;;;;;;;;5036860;28;20039;-91
2022/04/20 20:21:16;;;;;;;;;;;;;;;;;;;;;
2022/04/20 20:33:19;;;;;;;;;;;;;;;;;;;;;
2022/04/20 20:35:56;;;;;;;24.85;12.18;;;;;;;;;;5037503;28;20025;-91
2022/04/20 20:41:31;;;;;;;;;;;;;;;;;;;;;
2022/04/20 20:43:58;;;;;;;26.65;12.25;;;;;;;;;;5036972;28;20381;-92
2022/04/20 20:46:40;;;;;;;25.77;12.60;;;;;;;;;;5018501;28;20036;-91
2022/04/20 20:52:10;;;;;;;29.95;14.80;;;;;;;;;;5016989;28;20084;-91
2022/04/20 21:00:17;;;;;;;26.90;12.80;;;;;;;;;;5005787;28;20033;-89
2022/04/20 21:05:46;;;;;;;31.90;16.17;;;;;;;;;;5016599;28;20042;-91
2022/04/20 21:08:22;;;;;;;;;;;;;;;;;;;;;
2022/04/20 21:11:06;;;;;;;24.08;12.82;;;;;;;;;;5016221;28;20025;-91
2022/04/20 21:13:45;;;;;;;;;;;;;;;;;;4999556;28;20445;-90
2022/04/20 21:16:32;;;;;;;19.20;9.93;;;;;;;;;;4998982;28;19906;-90
2022/04/20 21:19:18;;;;;;;;;;;;;;;;;;;;;
2022/04/20 21:21:45;;;;;;;18.83;11.02;;;;;;;;;;5014573;28;20033;-90
2022/04/20 21:30:25;;;;;;;18.95;9.05;;;;;;;;;;4941984;28;20125;-95
2022/04/20 21:33:24;;;;;;;22.17;10.13;;;;;;;;;;4998311;28;20034;-91
2022/04/20 21:35:59;;;;;;;21.88;9.68;;;;;;;;;;4998136;28;20037;-88
2022/04/20 21:38:38;;;;;;;18.13;9.80;;;;;;;;;;4997410;28;20022;-89
2022/04/20 21:41:23;;;;;;;17.55;9.93;;;;;;;;;;4998074;28;20030;-88
2022/04/20 21:43:58;;;;;;;21.98;10.68;;;;;;;;;;4997936;28;20030;-91
2022/04/20 21:46:31;;;;;;;18.35;9.15;;;;;;;;;;4998049;28;20034;-90
2022/04/20 21:48:57;;;;;;;17.50;8.68;;;;;;;;;;4999248;28;20044;-92
2022/04/20 21:51:26;;;;;;;16.13;9.32;;;;;;;;;;5006548;28;20060;-90
2022/04/20 21:54:09;;;;;;;;;;;;;;;;;;;;;
2022/04/20 21:56:42;;;;;;;19.73;11.55;;;;;;;;;;4954636;29;20039;-90
2022/04/20 21:59:09;;;;;;;20.88;10.88;;;;;;;;;;4952752;29;20457;-91
2022/04/20 22:08:33;;;;;;;;;;;;;;;;;;;;;
2022/04/20 22:13:56;;;;;;;17.73;7.15;;;;;;;;;;4954795;29;19961;-90
2022/04/20 22:16:47;;;;;;;18.25;8.52;;;;;;;;;;4984639;28;20152;-92
2022/04/20 22:19:26;;;;;;;18.75;9.88;;;;;;;;;;4957293;28;20043;-90
2022/04/20 22:21:56;;;;;;;18.95;9.68;;;;;;;;;;5014588;28;20033;-93
2022/04/20 22:24:25;;;;;;;19.75;9.48;;;;;;;;;;5016565;28;20720;-90
2022/04/20 22:27:01;;;;;;;18.35;10.25;;;;;;;;;;5014159;28;20041;-91
2022/04/20 22:29:46;;;;;;;17.63;9.50;;;;;;;;;;5017011;28;20048;-90
2022/04/20 22:32:22;;;;;;;19.88;9.48;;;;;;;;;;5016661;28;20567;-91
2022/04/20 22:34:57;;;;;;;18.60;9.88;;;;;;;;;;5017547;28;20032;-90
2022/04/20 22:37:24;;;;;;;21.50;10.57;;;;;;;;;;5018162;28;20029;-90
2022/04/20 22:39:50;;;;;;;19.67;10.40;;;;;;;;;;5018107;28;20040;-91
2022/04/20 22:42:20;;;;;;;22.00;11.02;;;;;;;;;;5018611;28;20025;-90
2022/04/20 22:44:53;;;;;;;21.10;10.02;;;;;;;;;;5017024;28;20032;-90
2022/04/20 22:47:23;;;;;;;19.15;9.77;;;;;;;;;;5016588;28;20036;-92
2022/04/20 22:49:49;;;;;;;19.20;9.23;;;;;;;;;;5015495;28;20424;-91
2022/04/20 22:52:18;;;;;;;18.70;8.88;;;;;;;;;;5016977;28;20033;-91
2022/04/20 22:54:45;;;;;;;18.45;9.13;;;;;;;;;;5016722;28;20033;-89
2022/04/20 22:57:45;;;;;;;18.45;10.13;;;;;;;;;;5016508;28;20018;-91
2022/04/20 23:00:21;;;;;;;15.73;8.93;;;;;;;;;;5013941;28;20046;-90
2022/04/20 23:09:14;;;;;;;19.10;9.25;;;;;;;;;;4954758;29;20082;-90
2022/04/20 23:11:45;;;;;;;13.65;8.60;;;;;;;;;;4954088;29;20074;-91
2022/04/20 23:14:17;;;;;;;19.77;9.65;;;;;;;;;;4954768;29;20512;-90
2022/04/20 23:17:24;;;;;;;19.83;9.38;;;;;;;;;;4991209;28;20034;-91
2022/04/20 23:19:56;;;;;;;15.90;8.57;;;;;;;;;;5016138;28;20448;-90
2022/04/20 23:29:08;;;;;;;16.05;8.38;;;;;;;;;;5033905;28;20059;-88
2022/04/20 23:31:35;;;;;;;16.67;8.30;;;;;;;;;;4937621;29;20039;-93
2022/04/20 23:34:10;;;;;;;16.25;9.10;;;;;;;;;;4953741;29;20055;-91
2022/04/20 23:37:09;;;;;;;16.60;9.02;;;;;;;;;;4954294;29;20054;-91
2022/04/20 23:43:05;;;;;;;16.23;7.93;;;;;;;;;;5034302;28;20032;-89
2022/04/20 23:45:40;;;;;;;14.23;8.20;;;;;;;;;;5016336;28;20061;-95
2022/04/20 23:48:17;;;;;;;;;;;;;;;;;;;;;
2022/04/20 23:51:13;;;;;;;12.98;7.28;;;;;;;;;;5033816;28;20052;-90
2022/04/20 23:54:01;;;;;;;;;;;;;;;;;;;;;
2022/04/20 23:56:30;;;;;;;17.90;9.30;;;;;;;;;;5033793;28;20036;-90
